Time;durP1;ratioP1;P1;durP2;ratioP2;P2;SDS_P1;SDS_P2;PMS_P1;PMS_P2;Temp;Humidity;BMP_temperature;BMP_pressure;BME280_temperature;BME280_humidity;BME280_pressure;Samples;Min_cycle;Max_cycle;Signal;HPM_P1;HPM_P2
2023/05/02 00:02:12;;;;;;;10.40;6.77;;;;;;;9.37;75.24;100527.39;1473870;88;21426;-81
2023/05/02 00:04:38;;;;;;;9.73;7.13;;;;;;;9.36;74.72;100528.87;1468897;88;21309;-81
2023/05/02 00:07:05;;;;;;;9.27;5.77;;;;;;;9.35;75.15;100521.89;1476742;88;21375;-82
2023/05/02 00:09:31;;;;;;;9.43;6.40;;;;;;;9.35;74.13;100521.89;1477737;88;21384;-82
2023/05/02 00:11:58;;;;;;;8.47;5.50;;;;;;;9.33;74.68;100524.69;1458671;88;21397;-82
2023/05/02 00:14:25;;;;;;;15.10;5.43;;;;;;;9.34;73.74;100521.06;1474939;88;21915;-81
2023/05/02 00:16:51;;;;;;;12.90;7.57;;;;;;;9.34;74.84;100519.75;1470543;88;22508;-81
2023/05/02 00:19:18;;;;;;;12.10;7.20;;;;;;;9.36;74.28;100512.53;1441440;88;21538;-82
2023/05/02 00:21:49;;;;;;;11.97;5.80;;;;;;;9.40;74.88;100511.27;1429089;91;22441;-81
2023/05/02 00:24:17;;;;;;;14.73;5.90;;;;;;;9.39;74.59;100522.81;1474709;88;21301;-82
2023/05/02 00:26:44;;;;;;;11.20;6.00;;;;;;;9.37;75.17;100523.43;1471703;88;21546;-81
2023/05/02 00:29:10;;;;;;;12.93;6.60;;;;;;;9.35;75.38;100524.08;1473973;88;21419;-80
2023/05/02 00:31:36;;;;;;;9.20;6.27;;;;;;;9.31;74.48;100518.70;1461724;88;21575;-81
2023/05/02 00:34:04;;;;;;;12.93;6.33;;;;;;;9.25;74.89;100525.86;1460502;88;21790;-81
2023/05/02 00:36:31;;;;;;;11.87;6.00;;;;;;;9.20;74.26;100524.93;1469959;88;21338;-83
2023/05/02 00:38:57;;;;;;;13.20;6.80;;;;;;;9.16;74.25;100524.87;1468848;88;22453;-82
2023/05/02 00:41:23;;;;;;;10.53;5.33;;;;;;;9.14;75.36;100531.25;1477130;88;21538;-82
2023/05/02 00:43:50;;;;;;;7.33;4.73;;;;;;;9.10;75.23;100526.73;1428410;91;21396;-82
2023/05/02 00:46:16;;;;;;;12.53;6.23;;;;;;;9.09;75.78;100533.00;1467196;88;21583;-82
2023/05/02 00:48:44;;;;;;;10.53;5.60;;;;;;;9.12;75.11;100531.86;1443688;88;21825;-82
2023/05/02 00:51:12;;;;;;;10.60;5.63;;;;;;;9.09;75.71;100535.64;1457921;88;21331;-82
2023/05/02 00:53:40;;;;;;;9.17;5.43;;;;;;;9.07;76.00;100535.42;1429693;91;21376;-82
2023/05/02 00:56:08;;;;;;;9.30;5.77;;;;;;;9.04;76.41;100538.67;1481744;88;22328;-82
2023/05/02 00:58:37;;;;;;;11.80;5.27;;;;;;;8.97;77.07;100540.16;1490792;88;21345;-82
2023/05/02 01:01:23;;;;;;;10.30;5.53;;;;;;;8.90;76.87;100545.64;1425327;91;21553;-83
2023/05/02 01:04:02;;;;;;;11.07;5.60;;;;;;;8.84;77.08;100544.86;1484272;88;21582;-82
2023/05/02 01:06:42;;;;;;;10.80;5.40;;;;;;;8.80;76.03;100545.63;1486908;88;21491;-81
2023/05/02 01:09:45;;;;;;;8.50;5.58;;;;;;;8.77;76.74;100548.98;1478907;88;21426;-81
2023/05/02 01:12:28;;;;;;;10.87;5.00;;;;;;;8.72;77.31;100555.17;1481890;88;21500;-79
2023/05/02 01:14:57;;;;;;;9.13;4.83;;;;;;;8.68;77.18;100559.02;1431038;91;22396;-80
2023/05/02 01:17:28;;;;;;;7.33;5.40;;;;;;;8.66;77.49;100559.63;1458851;88;21345;-81
2023/05/02 01:19:58;;;;;;;9.03;5.43;;;;;;;8.66;77.39;100558.31;1481427;88;21485;-81
2023/05/02 01:22:29;;;;;;;10.37;5.40;;;;;;;8.62;77.67;100559.06;1431810;91;21575;-80
2023/05/02 01:25:18;;;;;;;9.35;5.70;;;;;;;8.59;77.44;100559.33;1485627;88;21382;-80
2023/05/02 01:28:26;;;;;;;10.40;5.57;;;;;;;8.54;77.27;100559.70;1478297;88;21412;-79
2023/05/02 01:30:55;;;;;;;8.00;5.80;;;;;;;8.50;77.34;100553.04;1478236;88;22513;-79
2023/05/02 01:33:23;;;;;;;7.40;5.20;;;;;;;8.49;77.88;100548.74;1473681;88;21374;-81
2023/05/02 01:35:51;;;;;;;8.07;5.00;;;;;;;8.45;79.61;100554.39;1478629;88;21382;-81
2023/05/02 01:38:19;;;;;;;9.47;4.83;;;;;;;8.43;78.03;100557.18;1486079;88;21511;-80
2023/05/02 01:40:48;;;;;;;9.73;5.57;;;;;;;8.46;78.14;100559.55;1482475;88;22930;-80
2023/05/02 01:43:17;;;;;;;11.40;6.30;;;;;;;8.50;77.65;100560.95;1428291;91;22321;-80
2023/05/02 01:45:47;;;;;;;11.50;5.43;;;;;;;8.55;77.38;100561.40;1476493;88;21530;-81
2023/05/02 01:48:16;;;;;;;9.47;5.53;;;;;;;8.59;77.07;100553.56;1432284;91;22315;-81
2023/05/02 01:50:45;;;;;;;9.00;5.33;;;;;;;8.63;78.07;100549.34;1448596;88;21538;-80
2023/05/02 01:53:14;;;;;;;10.03;6.10;;;;;;;8.57;79.10;100548.06;1478355;88;21478;-79
2023/05/02 01:55:45;;;;;;;8.97;5.50;;;;;;;8.54;77.76;100549.64;1467274;88;22233;-78
2023/05/02 01:58:14;;;;;;;11.53;6.30;;;;;;;8.49;77.91;100552.70;1477529;88;21368;-79
2023/05/02 02:00:44;;;;;;;10.53;6.43;;;;;;;8.48;77.52;100558.92;1471131;88;21501;-79
2023/05/02 02:03:11;;;;;;;10.40;5.67;;;;;;;8.45;78.47;100557.86;1477421;88;21578;-81
2023/05/02 02:05:39;;;;;;;7.87;5.27;;;;;;;8.44;78.22;100553.56;1472599;88;21398;-81
2023/05/02 02:08:05;;;;;;;12.87;6.50;;;;;;;8.45;78.68;100557.86;1462743;88;21397;-79
2023/05/02 02:10:37;;;;;;;9.07;5.40;;;;;;;8.49;78.81;100560.61;1471249;88;21388;-79
2023/05/02 02:13:19;;;;;;;9.77;5.43;;;;;;;8.54;78.46;100566.80;1468645;88;21435;-79
2023/05/02 02:15:52;;;;;;;7.57;5.33;;;;;;;8.54;79.01;100561.52;1473610;88;21651;-80
2023/05/02 02:18:24;;;;;;;8.10;5.60;;;;;;;8.52;79.76;100561.66;1474741;88;21398;-79
2023/05/02 02:20:51;;;;;;;11.63;6.17;;;;;;;8.49;78.78;100575.12;1474672;88;21554;-80
2023/05/02 02:23:22;;;;;;;11.23;6.50;;;;;;;8.46;78.11;100574.52;1463172;88;22305;-81
2023/05/02 02:25:51;;;;;;;18.52;6.92;;;;;;;8.44;77.90;100573.84;1415527;91;21421;-81
2023/05/02 02:28:17;;;;;;;11.73;6.57;;;;;;;8.38;79.11;100568.56;1470107;88;21428;-80
2023/05/02 02:30:44;;;;;;;11.40;6.43;;;;;;;8.31;78.79;100566.08;1475968;88;21516;-81
2023/05/02 02:33:10;;;;;;;8.87;5.97;;;;;;;8.28;79.35;100572.93;1470611;88;22292;-80
2023/05/02 02:35:48;;;;;;;11.80;5.80;;;;;;;8.27;80.09;100564.67;1473353;88;21435;-81
2023/05/02 02:38:35;;;;;;;10.37;5.57;;;;;;;8.23;79.94;100565.42;1477420;88;21656;-81
2023/05/02 02:41:22;;;;;;;9.17;5.87;;;;;;;8.23;80.30;100572.02;1470615;88;21420;-80
2023/05/02 02:44:04;;;;;;;10.50;5.73;;;;;;;8.23;80.99;100572.47;1470023;88;21397;-79
2023/05/02 02:46:51;;;;;;;10.33;6.10;;;;;;;8.23;80.68;100571.16;1430856;91;22477;-79
2023/05/02 02:49:39;;;;;;;11.03;6.70;;;;;;;8.16;80.83;100570.02;1472967;88;21612;-81
2023/05/02 02:52:29;;;;;;;9.07;5.60;;;;;;;8.12;80.78;100567.64;1484238;88;21434;-81
2023/05/02 02:55:09;;;;;;;8.83;6.23;;;;;;;8.12;80.67;100574.22;1479795;88;21515;-81
2023/05/02 02:57:56;;;;;;;11.33;6.60;;;;;;;8.07;81.68;100576.41;1428866;91;21399;-80
2023/05/02 03:00:27;;;;;;;10.43;6.53;;;;;;;8.07;81.41;100580.84;1425242;88;21656;-81
2023/05/02 03:02:55;;;;;;;11.75;6.47;;;;;;;8.04;81.46;100580.61;1485013;88;21390;-80
2023/05/02 03:05:25;;;;;;;11.93;5.60;;;;;;;8.06;80.99;100585.28;1434784;91;21575;-81
2023/05/02 03:07:51;;;;;;;9.87;6.20;;;;;;;8.12;81.12;100588.73;1481218;88;22351;-81
2023/05/02 03:10:17;;;;;;;12.17;7.03;;;;;;;8.17;81.21;100587.49;1465722;88;21523;-81
2023/05/02 03:12:44;;;;;;;15.67;5.93;;;;;;;8.19;81.70;100589.53;1478805;88;21383;-80
2023/05/02 03:15:45;;;;;;;8.27;6.27;;;;;;;8.20;81.74;100589.87;1475891;88;21559;-80
2023/05/02 03:18:11;;;;;;;9.20;6.42;;;;;;;8.21;81.81;100591.08;1429581;91;21591;-81
2023/05/02 03:20:37;;;;;;;8.33;5.30;;;;;;;8.23;81.76;100602.80;1410692;91;21377;-81
2023/05/02 03:23:03;;;;;;;13.73;6.00;;;;;;;8.22;82.13;100597.18;1454825;88;21361;-82
2023/05/02 03:25:30;;;;;;;11.03;4.97;;;;;;;8.23;82.11;100602.80;1433370;91;22404;-81
2023/05/02 03:27:59;;;;;;;8.80;4.73;;;;;;;8.24;82.16;100607.13;1478154;88;21375;-80
2023/05/02 03:30:25;;;;;;;10.03;5.97;;;;;;;8.25;82.45;100606.98;1484404;88;22351;-80
2023/05/02 03:32:51;;;;;;;16.47;6.47;;;;;;;8.25;82.13;100606.98;1406714;91;21463;-80
2023/05/02 03:35:18;;;;;;;9.67;6.17;;;;;;;8.27;81.77;100607.70;1479856;88;21448;-82
2023/05/02 03:37:45;;;;;;;12.83;6.93;;;;;;;8.27;81.92;100610.34;1487041;88;21324;-81
2023/05/02 03:40:11;;;;;;;9.70;5.93;;;;;;;8.32;82.06;100612.60;1418560;91;22470;-81
2023/05/02 03:42:40;;;;;;;11.80;6.63;;;;;;;8.34;82.23;100611.97;1474275;88;21666;-82
2023/05/02 03:45:07;;;;;;;12.53;6.87;;;;;;;8.34;82.17;100615.92;1452598;88;22550;-81
2023/05/02 03:47:34;;;;;;;10.83;6.00;;;;;;;8.36;82.68;100618.79;1475345;88;21338;-81
2023/05/02 03:50:02;;;;;;;9.73;5.60;;;;;;;8.41;83.21;100621.08;1458015;88;21560;-81
2023/05/02 03:52:28;;;;;;;11.90;6.63;;;;;;;8.45;83.46;100622.48;1428784;91;22395;-81
2023/05/02 03:54:54;;;;;;;9.27;5.47;;;;;;;8.50;83.73;100626.89;1472504;88;21369;-81
2023/05/02 03:57:20;;;;;;;7.17;4.87;;;;;;;8.57;83.17;100632.02;1456728;88;21620;-82
2023/05/02 03:59:47;;;;;;;8.10;5.37;;;;;;;8.66;83.40;100626.45;1473282;88;21471;-82
2023/05/02 04:02:14;;;;;;;14.07;6.33;;;;;;;8.76;83.80;100632.60;1429244;91;21473;-81
2023/05/02 04:04:42;;;;;;;9.30;6.23;;;;;;;8.88;83.30;100636.48;1473907;88;21553;-82
2023/05/02 04:07:14;;;;;;;8.70;6.13;;;;;;;8.95;83.62;100634.52;1473388;88;21368;-82
2023/05/02 04:09:36;;;;;;;11.37;6.30;;;;;;;9.05;82.49;100639.83;1478957;88;21523;-81
2023/05/02 04:12:02;;;;;;;11.67;5.80;;;;;;;9.13;81.37;100640.00;1473222;88;21590;-82
2023/05/02 04:14:28;;;;;;;12.13;6.40;;;;;;;9.20;81.09;100635.02;1468993;88;21367;-80
2023/05/02 04:16:54;;;;;;;11.27;6.33;;;;;;;9.28;80.72;100644.92;1474316;88;21445;-81
2023/05/02 04:19:20;;;;;;;9.73;5.90;;;;;;;9.36;80.72;100641.13;1454824;88;21515;-81
2023/05/02 04:21:47;;;;;;;12.37;7.57;;;;;;;9.45;80.84;100641.64;1476330;88;21478;-81
2023/05/02 04:24:13;;;;;;;10.37;6.67;;;;;;;9.57;80.34;100652.44;1469875;88;21419;-81
2023/05/02 04:26:40;;;;;;;10.47;6.40;;;;;;;9.68;79.68;100651.49;1454585;88;21553;-81
2023/05/02 04:29:07;;;;;;;10.57;6.87;;;;;;;9.76;79.21;100649.00;1426593;91;21399;-81
2023/05/02 04:31:33;;;;;;;12.97;6.50;;;;;;;9.80;78.55;100647.75;1481836;88;21456;-81
2023/05/02 04:34:00;;;;;;;9.83;5.77;;;;;;;9.81;78.25;100656.05;1470601;88;21323;-82
2023/05/02 04:36:27;;;;;;;15.77;7.93;;;;;;;9.84;78.09;100657.09;1469794;88;21359;-81
2023/05/02 04:38:53;;;;;;;11.23;7.13;;;;;;;9.88;77.67;100662.44;1427403;91;22351;-81
2023/05/02 04:41:20;;;;;;;14.23;8.40;;;;;;;9.91;77.35;100663.48;1470824;88;21427;-80
2023/05/02 04:43:46;;;;;;;12.70;6.57;;;;;;;9.97;77.13;100663.92;1472848;88;21530;-81
2023/05/02 04:46:13;;;;;;;12.13;6.57;;;;;;;10.04;77.05;100665.02;1470131;88;21419;-81
2023/05/02 04:48:40;;;;;;;11.00;7.73;;;;;;;10.12;76.77;100669.13;1459313;88;21435;-80
2023/05/02 04:51:09;;;;;;;11.50;6.63;;;;;;;10.21;76.70;100665.66;1472796;88;22396;-81
2023/05/02 04:53:36;;;;;;;17.73;6.60;;;;;;;10.27;76.12;100658.54;1478242;88;21471;-81
2023/05/02 04:56:02;;;;;;;12.47;6.20;;;;;;;10.39;76.19;100656.09;1475247;88;22440;-81
2023/05/02 04:58:28;;;;;;;14.83;6.63;;;;;;;10.49;75.85;100655.23;1475541;88;21858;-81
2023/05/02 05:00:55;;;;;;;17.63;7.53;;;;;;;10.60;75.46;100654.59;1472161;88;22263;-82
2023/05/02 05:03:21;;;;;;;19.63;9.23;;;;;;;10.60;74.93;100653.26;1470209;88;21434;-81
2023/05/02 05:05:48;;;;;;;18.10;9.57;;;;;;;10.66;75.34;100649.21;1472695;88;22232;-81
2023/05/02 05:08:14;;;;;;;13.47;8.00;;;;;;;10.72;75.72;100647.31;1471340;88;21339;-81
2023/05/02 05:10:40;;;;;;;11.73;8.43;;;;;;;10.79;76.32;100653.72;1471834;88;21353;-81
2023/05/02 05:13:06;;;;;;;32.73;18.37;;;;;;;10.90;76.19;100653.19;1471854;88;21375;-82
2023/05/02 05:15:32;;;;;;;19.90;12.87;;;;;;;10.94;77.26;100655.91;1428565;91;22427;-82
2023/05/02 05:17:58;;;;;;;18.53;11.43;;;;;;;11.04;76.88;100657.52;1460704;88;21499;-82
2023/05/02 05:20:25;;;;;;;26.17;11.17;;;;;;;11.18;76.77;100652.74;1428588;91;21421;-81
2023/05/02 05:22:51;;;;;;;20.70;9.57;;;;;;;11.27;75.80;100655.34;1479945;88;21434;-82
2023/05/02 05:25:18;;;;;;;13.53;8.13;;;;;;;11.36;75.78;100652.79;1427717;91;22286;-81
2023/05/02 05:27:44;;;;;;;14.60;9.40;;;;;;;11.48;75.43;100659.59;1472956;88;21538;-79
2023/05/02 05:30:11;;;;;;;18.37;10.63;;;;;;;11.64;75.47;100662.41;1420649;91;21399;-78
2023/05/02 05:32:37;;;;;;;17.43;10.60;;;;;;;11.82;75.06;100658.94;1478012;88;21619;-78
2023/05/02 05:35:04;;;;;;;17.50;9.50;;;;;;;12.02;74.81;100657.84;1429903;91;21347;-81
2023/05/02 05:37:30;;;;;;;17.87;9.20;;;;;;;12.19;74.14;100660.99;1472521;88;21390;-81
2023/05/02 05:39:57;;;;;;;16.80;8.07;;;;;;;12.42;74.04;100659.19;1469639;88;21428;-81
2023/05/02 05:42:23;;;;;;;16.77;7.67;;;;;;;12.67;73.63;100666.03;1471709;88;22329;-81
2023/05/02 05:44:55;;;;;;;13.00;7.97;;;;;;;12.88;72.34;100667.31;1468009;88;21456;-81
2023/05/02 05:47:21;;;;;;;14.83;7.20;;;;;;;13.10;71.87;100676.59;1472483;88;21457;-80
2023/05/02 05:49:49;;;;;;;13.73;7.57;;;;;;;13.35;71.17;100677.22;1455110;88;21472;-80
2023/05/02 05:52:15;;;;;;;13.87;7.00;;;;;;;13.53;70.39;100677.48;1471727;88;22640;-80
2023/05/02 05:54:41;;;;;;;12.97;7.23;;;;;;;13.68;68.83;100686.17;1474631;88;21464;-81
2023/05/02 05:57:08;;;;;;;17.57;9.20;;;;;;;13.88;69.15;100691.55;1474158;88;21331;-80
2023/05/02 05:59:37;;;;;;;17.13;8.57;;;;;;;14.09;69.17;100696.91;1471761;88;21339;-80
2023/05/02 06:02:04;;;;;;;14.67;7.93;;;;;;;14.29;68.90;100696.92;1425967;91;21465;-80
2023/05/02 06:04:31;;;;;;;13.00;7.73;;;;;;;14.49;68.50;100700.61;1477294;88;22410;-80
2023/05/02 06:06:57;;;;;;;12.03;7.80;;;;;;;14.67;67.95;100701.28;1456236;88;21331;-80
2023/05/02 06:09:23;;;;;;;12.50;7.87;;;;;;;14.83;67.88;100702.61;1470708;88;21420;-80
2023/05/02 06:11:49;;;;;;;14.07;7.97;;;;;;;15.02;67.06;100705.93;1458223;88;22284;-81
2023/05/02 06:14:15;;;;;;;18.17;7.97;;;;;;;15.18;66.53;100705.88;1471190;88;21476;-81
2023/05/02 06:16:41;;;;;;;12.73;6.90;;;;;;;15.31;65.09;100698.17;1473335;88;21795;-80
2023/05/02 06:19:08;;;;;;;14.70;7.20;;;;;;;15.42;64.36;100700.98;1463803;88;22232;-80
2023/05/02 06:21:37;;;;;;;12.60;7.33;;;;;;;15.49;64.11;100703.78;1434524;91;21391;-80
2023/05/02 06:24:04;;;;;;;9.47;7.33;;;;;;;15.65;64.10;100706.87;1474118;88;21323;-81
2023/05/02 06:26:32;;;;;;;11.93;6.70;;;;;;;15.79;63.20;100708.35;1472335;88;21663;-81
2023/05/02 06:28:58;;;;;;;13.43;6.70;;;;;;;15.89;62.93;100706.79;1471475;88;21383;-81
2023/05/02 06:31:24;;;;;;;12.53;7.43;;;;;;;16.01;62.74;100706.70;1480823;88;21308;-80
2023/05/02 06:33:51;;;;;;;8.30;6.70;;;;;;;16.08;61.15;100701.48;1472794;88;21353;-80
2023/05/02 06:36:17;;;;;;;15.73;7.67;;;;;;;16.24;62.19;100704.05;1453802;88;21369;-80
2023/05/02 06:38:43;;;;;;;11.00;7.03;;;;;;;16.42;62.00;100710.94;1472957;88;21627;-80
2023/05/02 06:41:14;;;;;;;10.27;6.73;;;;;;;16.61;61.49;100706.95;1475157;88;21420;-80
2023/05/02 06:43:41;;;;;;;9.60;6.37;;;;;;;16.78;60.83;100709.02;1470696;88;21470;-81
2023/05/02 06:46:08;;;;;;;9.03;6.20;;;;;;;16.93;60.65;100705.84;1465301;88;21435;-80
2023/05/02 06:48:37;;;;;;;11.17;6.87;;;;;;;17.10;60.77;100708.67;1474122;88;22196;-80
2023/05/02 06:51:04;;;;;;;10.23;6.35;;;;;;;17.31;60.04;100709.78;1407272;88;22352;-81
2023/05/02 06:53:30;;;;;;;15.63;6.83;;;;;;;17.48;59.47;100707.24;1397923;88;21229;-81
2023/05/02 06:55:57;;;;;;;18.17;7.27;;;;;;;17.58;57.48;100705.13;1513245;89;21509;-81
2023/05/02 06:58:23;;;;;;;12.60;7.27;;;;;;;17.69;58.46;100709.66;1431432;89;21465;-81
2023/05/02 07:00:49;;;;;;;14.87;8.07;;;;;;;17.80;57.45;100709.20;1456756;89;22226;-81
2023/05/02 07:03:16;;;;;;;14.70;8.20;;;;;;;17.95;57.21;100711.36;1458497;89;21500;-81
2023/05/02 07:05:42;;;;;;;12.73;8.10;;;;;;;18.09;56.95;100715.50;1445850;89;22316;-81
2023/05/02 07:08:09;;;;;;;12.70;7.37;;;;;;;18.23;56.59;100717.30;1456777;89;21449;-81
2023/05/02 07:10:36;;;;;;;10.47;7.40;;;;;;;18.37;55.78;100711.05;1451354;89;22351;-80
2023/05/02 07:13:02;;;;;;;9.13;6.47;;;;;;;18.52;55.18;100710.16;1457616;89;21368;-80
2023/05/02 07:15:28;;;;;;;10.60;5.70;;;;;;;18.52;54.46;100715.52;1456971;89;21560;-81
2023/05/02 07:17:55;;;;;;;9.67;5.90;;;;;;;18.58;54.94;100712.88;1458190;89;22278;-81
2023/05/02 07:20:22;;;;;;;10.40;6.97;;;;;;;18.75;54.68;100712.65;1456744;89;21443;-81
2023/05/02 07:22:48;;;;;;;7.73;6.07;;;;;;;18.93;54.28;100712.98;1458971;89;22646;-81
2023/05/02 07:25:14;;;;;;;11.00;5.87;;;;;;;19.18;54.11;100712.02;1443002;89;21397;-80
2023/05/02 07:27:41;;;;;;;9.15;5.70;;;;;;;19.27;53.73;100710.83;1444843;89;21391;-80
2023/05/02 07:30:08;;;;;;;10.30;5.83;;;;;;;19.46;53.65;100716.52;1457269;89;21368;-79
2023/05/02 07:32:34;;;;;;;10.48;5.87;;;;;;;19.51;51.44;100716.76;1391630;89;21509;-79
2023/05/02 07:35:01;;;;;;;22.27;6.58;;;;;;;19.58;51.33;100705.52;1488657;89;21406;-80
2023/05/02 07:37:32;;;;;;;7.92;6.15;;;;;;;19.74;51.52;100709.77;1443520;89;21376;-81
2023/05/02 07:39:59;;;;;;;15.35;5.72;;;;;;;19.80;51.61;100712.98;1540348;89;21362;-80
2023/05/02 07:42:31;;;;;;;12.13;6.22;;;;;;;19.95;51.76;100704.77;1371640;90;21317;-81
2023/05/02 07:44:58;;;;;;;8.93;6.22;;;;;;;20.01;51.29;100714.70;1388869;89;21420;-80
2023/05/02 07:47:28;;;;;;;7.60;5.17;;;;;;;20.02;50.34;100712.31;1541128;89;21221;-81
2023/05/02 07:49:55;;;;;;;15.57;5.50;;;;;;;20.25;50.78;100722.70;1379919;89;21265;-81
2023/05/02 07:52:22;;;;;;;8.13;5.15;;;;;;;20.47;49.46;100721.49;1382228;89;22160;-81
2023/05/02 07:54:49;;;;;;;13.85;5.58;;;;;;;20.60;48.93;100720.72;1393219;88;21482;-82
2023/05/02 07:57:15;;;;;;;22.02;6.00;;;;;;;20.60;48.51;100720.72;1396647;88;21236;-81
2023/05/02 07:59:41;;;;;;;9.00;5.40;;;;;;;20.59;48.45;100721.73;1397557;88;21191;-81
2023/05/02 08:02:08;;;;;;;7.20;5.17;;;;;;;20.57;46.55;100722.48;1397911;88;21309;-81
2023/05/02 08:04:34;;;;;;;11.40;4.90;;;;;;;20.59;48.14;100721.73;1398813;88;21462;-80
2023/05/02 08:07:00;;;;;;;8.75;5.12;;;;;;;20.70;48.85;100722.98;1456451;88;21641;-81
2023/05/02 08:09:26;;;;;;;9.68;5.90;;;;;;;20.91;48.70;100717.38;1466345;88;21398;-80
2023/05/02 08:11:53;;;;;;;12.10;5.78;;;;;;;21.20;48.21;100726.03;1468607;88;22409;-81
2023/05/02 08:14:19;;;;;;;7.78;4.50;;;;;;;21.37;47.75;100724.56;1471052;88;21497;-81
2023/05/02 08:16:45;;;;;;;13.58;5.53;;;;;;;21.29;46.06;100719.90;1474706;88;22154;-81
2023/05/02 08:19:11;;;;;;;7.85;4.97;;;;;;;21.32;46.61;100718.98;1472626;88;21501;-80
2023/05/02 08:21:37;;;;;;;9.28;4.92;;;;;;;21.46;46.74;100718.95;1475379;88;21405;-81
2023/05/02 08:24:04;;;;;;;8.05;4.17;;;;;;;21.62;46.60;100719.31;1471926;88;21441;-81
2023/05/02 08:26:30;;;;;;;7.60;4.47;;;;;;;21.61;43.84;100719.02;1458037;88;21391;-81
2023/05/02 08:28:57;;;;;;;5.35;4.62;;;;;;;21.76;46.03;100717.40;1473231;88;21490;-81
2023/05/02 08:31:23;;;;;;;13.85;4.75;;;;;;;21.79;44.93;100711.58;1457938;88;21382;-81
2023/05/02 08:33:50;;;;;;;8.63;4.87;;;;;;;21.95;45.62;100704.88;1467642;88;22174;-81
2023/05/02 08:36:18;;;;;;;12.80;4.42;;;;;;;21.95;45.62;100688.72;1473653;88;21375;-81
2023/05/02 08:38:45;;;;;;;7.03;4.78;;;;;;;22.05;45.36;100705.22;1472299;88;22256;-81
2023/05/02 08:41:18;;;;;;;10.75;4.65;;;;;;;22.25;45.13;100709.70;1410583;88;21494;-81
2023/05/02 08:43:45;;;;;;;8.53;4.33;;;;;;;22.41;44.92;100710.53;1474242;88;22344;-82
2023/05/02 08:46:14;;;;;;;5.67;3.92;;;;;;;22.53;43.10;100710.65;1428366;91;21586;-81
2023/05/02 08:48:43;;;;;;;9.67;4.33;;;;;;;22.75;43.91;100708.37;1476550;88;21545;-81
2023/05/02 08:51:13;;;;;;;10.38;4.33;;;;;;;22.92;41.38;100705.41;1426461;91;21494;-81
2023/05/02 08:53:40;;;;;;;8.40;3.75;;;;;;;22.96;42.18;100709.89;1475181;88;21456;-81
2023/05/02 08:56:09;;;;;;;10.53;3.80;;;;;;;23.16;42.10;100703.77;1471054;88;21582;-81
2023/05/02 08:58:39;;;;;;;21.90;6.20;;;;;;;23.36;41.66;100696.80;1380451;89;21482;-82
2023/05/02 09:01:18;;;;;;;;;;;;;;;23.40;39.79;100696.63;1396037;88;21235;-81
2023/05/02 09:03:46;;;;;;;4.05;3.15;;;;;;;23.41;37.71;100691.52;1396861;90;20239;-80
2023/05/02 09:06:19;;;;;;;4.85;3.77;;;;;;;23.51;39.53;100696.94;1354143;91;21274;-81
2023/05/02 09:08:53;;;;;;;5.78;3.10;;;;;;;23.53;38.74;100697.52;1540311;88;21191;-81
2023/05/02 09:11:21;;;;;;;7.12;3.47;;;;;;;23.59;36.63;100692.55;1551658;88;21346;-81
2023/05/02 09:13:50;;;;;;;7.92;3.85;;;;;;;23.69;37.66;100683.39;1396808;88;21302;-81
2023/05/02 09:16:25;;;;;;;9.50;3.47;;;;;;;23.72;37.60;100688.91;1380413;90;21280;-80
2023/05/02 09:18:57;;;;;;;19.52;3.22;;;;;;;23.92;37.63;100691.34;1352987;91;21362;-81
2023/05/02 09:21:36;;;;;;;5.47;3.62;;;;;;;24.08;36.57;100682.56;1394768;88;21272;-81
2023/05/02 09:24:17;;;;;;;13.28;3.77;;;;;;;24.28;37.60;100683.11;1426995;88;21339;-81
2023/05/02 09:26:59;;;;;;;5.90;3.87;;;;;;;24.46;37.58;100689.52;1470562;88;21560;-80
2023/05/02 09:29:29;;;;;;;7.83;3.20;;;;;;;24.76;37.70;100684.82;1425730;91;22256;-81
2023/05/02 09:31:55;;;;;;;6.17;3.52;;;;;;;24.98;36.69;100693.19;1393910;88;21654;-81
2023/05/02 09:34:22;;;;;;;9.25;3.50;;;;;;;25.14;36.14;100687.59;1355985;91;21252;-81
2023/05/02 09:36:52;;;;;;;5.33;3.25;;;;;;;25.12;34.16;100684.29;1383101;89;21348;-81
2023/05/02 09:39:25;;;;;;;9.50;3.90;;;;;;;25.19;34.67;100679.59;1379282;89;21566;-80
2023/05/02 09:41:51;;;;;;;6.42;3.00;;;;;;;25.29;35.26;100682.20;1483690;88;21412;-80
2023/05/02 09:44:21;;;;;;;4.55;3.08;;;;;;;25.31;34.29;100680.91;1470994;88;21338;-81
2023/05/02 09:46:48;;;;;;;;;;;;;;;25.14;34.30;100682.17;1395356;88;21391;-80
2023/05/02 09:49:18;;;;;;;7.42;2.92;;;;;;;25.16;34.79;100684.66;1396214;88;20262;-81
2023/05/02 09:51:46;;;;;;;;;;;;;;;25.27;34.53;100678.41;1395589;88;21332;-81
2023/05/02 09:54:13;;;;;;;9.40;4.08;;;;;;;25.34;32.67;100690.45;1396452;88;20232;-80
2023/05/02 09:56:56;;;;;;;7.35;3.42;;;;;;;25.35;33.83;100684.81;1473310;91;21400;-81
2023/05/02 09:59:23;;;;;;;5.95;3.75;;;;;;;25.38;33.20;100678.09;1381679;89;21257;-81
2023/05/02 10:01:58;;;;;;;4.78;3.35;;;;;;;25.42;33.46;100681.95;1420631;88;21539;-81
2023/05/02 10:04:27;;;;;;;6.62;2.98;;;;;;;25.37;32.21;100673.72;1412189;91;22494;-80
2023/05/02 10:06:54;;;;;;;5.62;3.10;;;;;;;25.32;33.71;100681.73;1394996;88;21317;-81
2023/05/02 10:09:21;;;;;;;3.52;2.67;;;;;;;25.43;33.07;100671.40;1355212;91;22191;-82
2023/05/02 10:11:54;;;;;;;6.75;2.55;;;;;;;25.53;31.03;100674.33;1402748;88;21420;-85
2023/05/02 10:14:27;;;;;;;4.80;3.27;;;;;;;25.75;32.10;100673.64;1506504;91;21998;-84
2023/05/02 10:17:03;;;;;;;4.40;2.67;;;;;;;25.96;32.12;100667.58;1544687;88;22255;-83
2023/05/02 10:19:43;;;;;;;4.45;2.92;;;;;;;26.10;31.03;100671.63;1473319;88;21427;-84
2023/05/02 10:22:11;;;;;;;2.75;2.50;;;;;;;26.16;32.29;100667.12;1507271;88;22529;-85
2023/05/02 10:24:39;;;;;;;4.33;3.15;;;;;;;26.28;30.58;100662.44;1428147;91;21435;-84
2023/05/02 10:27:06;;;;;;;8.38;3.27;;;;;;;26.25;31.46;100662.93;1458073;88;22262;-84
2023/05/02 10:29:33;;;;;;;3.85;2.83;;;;;;;26.37;31.22;100657.42;1426922;91;21532;-83
2023/05/02 10:32:03;;;;;;;6.65;2.77;;;;;;;26.57;31.21;100657.50;1473932;88;21442;-84
2023/05/02 10:34:33;;;;;;;4.75;2.65;;;;;;;26.73;30.01;100647.16;1474378;88;21506;-84
2023/05/02 10:37:00;;;;;;;4.87;3.30;;;;;;;26.84;29.89;100646.20;1425242;91;21547;-82
2023/05/02 10:39:28;;;;;;;6.53;2.52;;;;;;;26.93;30.46;100645.23;1473367;88;21390;-83
2023/05/02 10:41:58;;;;;;;4.58;2.37;;;;;;;26.94;28.79;100645.55;1372224;91;22396;-82
2023/05/02 10:44:39;;;;;;;4.90;2.12;;;;;;;26.88;28.62;100648.73;1472945;88;22299;-83
2023/05/02 10:47:25;;;;;;;4.08;2.40;;;;;;;26.89;29.25;100648.19;1471884;88;21435;-83
2023/05/02 10:49:59;;;;;;;5.47;2.35;;;;;;;26.77;29.32;100644.22;1424953;91;22419;-84
2023/05/02 10:52:36;;;;;;;5.47;2.42;;;;;;;26.72;29.94;100643.59;1473855;88;21516;-83
2023/05/02 10:55:20;;;;;;;4.25;2.27;;;;;;;26.59;29.92;100637.72;1473352;88;21420;-82
2023/05/02 10:58:11;;;;;;;15.45;3.22;;;;;;;26.50;29.60;100639.49;1475684;88;21478;-82
2023/05/02 11:00:37;;;;;;;7.00;3.20;;;;;;;26.46;29.76;100641.55;1433594;91;21353;-83
2023/05/02 11:03:05;;;;;;;3.40;2.25;;;;;;;26.47;29.59;100630.46;1481263;88;21618;-83
2023/05/02 11:05:35;;;;;;;7.20;2.77;;;;;;;26.57;30.01;100634.42;1480752;88;21406;-82
2023/05/02 11:08:20;;;;;;;2.45;2.25;;;;;;;26.60;28.93;100634.74;1455286;88;21389;-83
2023/05/02 11:10:46;;;;;;;6.60;2.70;;;;;;;26.62;29.36;100627.18;1477486;88;22342;-83
2023/05/02 11:13:12;;;;;;;7.15;2.15;;;;;;;26.81;30.03;100626.34;1481062;88;21391;-84
2023/05/02 11:15:45;;;;;;;4.97;2.62;;;;;;;27.03;29.89;100631.81;1432424;91;21404;-82
2023/05/02 11:18:13;;;;;;;5.92;2.92;;;;;;;27.28;29.51;100617.77;1480113;88;21560;-83
2023/05/02 11:20:44;;;;;;;3.15;2.80;;;;;;;27.51;28.61;100623.45;1359016;91;21266;-83
2023/05/02 11:23:21;;;;;;;4.10;2.30;;;;;;;27.60;28.17;100614.30;1504240;88;22357;-83
2023/05/02 11:25:49;;;;;;;7.42;2.62;;;;;;;27.59;28.22;100616.20;1431658;91;21564;-83
2023/05/02 11:28:41;;;;;;;4.42;2.87;;;;;;;27.59;27.89;100614.00;1481059;88;21353;-83
2023/05/02 11:31:11;;;;;;;4.08;2.83;;;;;;;27.52;28.02;100614.21;1479725;88;21383;-83
2023/05/02 11:33:38;;;;;;;7.08;2.40;;;;;;;27.55;27.45;100612.34;1473823;88;21404;-83
2023/05/02 11:36:04;;;;;;;7.72;2.55;;;;;;;27.62;27.58;100613.48;1480432;88;22790;-82